D/T METAR WX W/SPE G/SPE TEMP DEWP FEEL
31/01/23 13:20 EGDM 311320Z 28018G29KT 9999 FEW021 BKN300 10/05 Q1025 NOSIG RMK BLU BLU 20.7mph 33.4mph 10°C 5°C 9.3°C
31/01/23 12:50 EGDM 311250Z 28017KT 9999 FEW018 BKN300 10/06 Q1025 NOSIG RMK BLU BLU 19.6mph 10°C 6°C 9.6°C
31/01/23 12:20 EGDM 311220Z AUTO 28015KT 9999 FEW014/// BKN030/// 10/07 Q1024 17.3mph 10°C 7°C 10.0°C
31/01/23 07:20 EGDM 310720Z AUTO 24012KT 9999 OVC011/// 06/05 Q1025 13.8mph 6°C 5°C 5.3°C
31/01/23 05:50 EGDM 310550Z AUTO 25006KT 9999 FEW018/// BKN042/// 05/03 Q1025 6.9mph 5°C 3°C 3.7°C
30/01/23 21:50 EGDM 302150Z AUTO 21005KT 9999 BKN100/// 03/02 Q1028 5.8mph 3°C 2°C 1.4°C
30/01/23 12:50 EGDM 301250Z 31013KT 9999 FEW020 SCT150 BKN200 08/03 Q1026 NOSIG RMK BLU BLU 15.0mph 8°C 3°C 6.7°C
30/01/23 11:50 EGDM 301150Z 30012KT CAVOK 07/03 Q1026 NOSIG RMK BLU BLU 13.8mph 7°C 3°C 5.7°C
30/01/23 10:50 EGDM 301050Z 30010KT CAVOK 05/02 Q1026 NOSIG RMK BLU BLU 11.5mph 5°C 2°C 3.4°C
30/01/23 10:20 EGDM 301020Z 29008KT CAVOK 05/02 Q1026 NOSIG RMK BLU BLU 9.2mph 5°C 2°C 3.4°C
30/01/23 09:50 EGDM 300950Z 29007KT CAVOK 04/01 Q1026 NOSIG RMK BLU BLU 8.1mph 4°C 1°C 2.1°C
30/01/23 07:50 EGDM 300750Z 32007KT 9999 FEW020 04/00 Q1025 NOSIG RMK BLU BLU 8.1mph 4°C 0°C 1.8°C
09/01/23 06:20 EGDM 090620Z AUTO 26014KT 9999 -RA FEW018/// SCT030/// 05/04 Q0996 -RA 16.1mph 5°C 4°C 4.0°C
09/01/23 05:50 EGDM 090550Z AUTO 26013KT 9999 NCD 05/03 Q0995 15.0mph 5°C 3°C 3.7°C
09/01/23 05:20 EGDM 090520Z AUTO 27014KT 9999 SCT018/// 05/03 Q0995 16.1mph 5°C 3°C 3.7°C
09/01/23 04:50 EGDM 090450Z AUTO 25013KT 9999 SCT020/// OVC110/// 06/04 Q0995 15.0mph 6°C 4°C 5.0°C
09/01/23 04:20 EGDM 090420Z AUTO 26013KT 9999 FEW021/// OVC110/// 06/04 Q0994 15.0mph 6°C 4°C 5.0°C
09/01/23 03:50 EGDM 090350Z AUTO 26013KT 9999 BKN018/// BKN160/// 06/04 Q0994 15.0mph 6°C 4°C 5.0°C
09/01/23 03:20 EGDM 090320Z AUTO 26014KT 9999 SCT021/// SCT034/// BKN120/// 06/05 Q0993 16.1mph 6°C 5°C 5.3°C
09/01/23 02:50 EGDM 090250Z AUTO 25013KT 9999 OVC017/// 06/05 Q0993 15.0mph 6°C 5°C 5.3°C
09/01/23 02:20 EGDM 090220Z AUTO 25011KT 9999 OVC014/// 06/05 Q0993 12.7mph 6°C 5°C 5.3°C
09/01/23 01:20 EGDM 090120Z AUTO 26010KT 9999 FEW016/// BKN024/// 06/04 Q0992 11.5mph 6°C 4°C 5.0°C
09/01/23 00:50 EGDM 090050Z AUTO 26008KT 9999 FEW020/// 05/04 Q0991 9.2mph 5°C 4°C 4.0°C
09/01/23 00:20 EGDM 090020Z AUTO 28012KT 9999 // FEW021/// 05/04 Q0991 13.8mph 5°C 4°C 4.0°C
08/01/23 23:50 EGDM 082350Z AUTO 29016KT 9999 // SCT020/// SCT045/// 06/04 Q0990 18.4mph 6°C 4°C 5.0°C
08/01/23 23:20 EGDM 082320Z AUTO 29021KT 9999 // BKN009/// SCT017/// 06/05 Q0989 24.2mph 6°C 5°C 5.3°C
08/01/23 22:50 EGDM 082250Z AUTO 27018KT 6000 // OVC009/// 06/05 Q0987 20.7mph 6°C 5°C 5.3°C
08/01/23 22:20 EGDM 082220Z AUTO 26015KT 9999 // OVC012/// 06/05 Q0987 17.3mph 6°C 5°C 5.3°C
08/01/23 21:50 EGDM 082150Z AUTO 23014KT 9999 -RA OVC014/// 07/05 Q0987 -RA 16.1mph 7°C 5°C 6.3°C
08/01/23 20:20 EGDM 082020Z AUTO 20007KT 8000 -RA OVC015/// 05/04 Q0988 -RA 8.1mph 5°C 4°C 4.0°C
08/01/23 19:20 EGDM 081920Z AUTO 17007KT 9999 SCT053/// 04/03 Q0988 8.1mph 4°C 3°C 2.7°C
08/01/23 18:50 EGDM 081850Z AUTO 20007KT 9999 NCD 04/02 Q0989 8.1mph 4°C 2°C 2.4°C
08/01/23 18:20 EGDM 081820Z AUTO 20006KT 9999 NCD 04/02 Q0989 6.9mph 4°C 2°C 2.4°C
08/01/23 17:50 EGDM 081750Z AUTO 21007KT 9999 NCD 04/02 Q0989 8.1mph 4°C 2°C 2.4°C
08/01/23 17:20 EGDM 081720Z AUTO 24013KT 9999 NCD 05/03 Q0989 15.0mph 5°C 3°C 3.7°C
08/01/23 16:50 EGDM 081650Z AUTO 23011KT 9999 BKN027/// SCT100/// 05/04 Q0989 12.7mph 5°C 4°C 4.0°C
08/01/23 16:20 EGDM 081620Z AUTO 24012KT 9999 // BKN018/// 05/04 Q0989 13.8mph 5°C 4°C 4.0°C
08/01/23 15:50 EGDM 081550Z AUTO 25013KT 9999 // FEW011/// BKN038/// 06/04 Q0989 15.0mph 6°C 4°C 5.0°C
08/01/23 15:20 EGDM 081520Z AUTO 26014KT 5000 -RA OVC007/// 06/05 Q0989 -RA 16.1mph 6°C 5°C 5.3°C
08/01/23 14:20 EGDM 081420Z AUTO 21011KT 9999 // FEW020/// BKN029/// BKN050/// 07/06 Q0988 12.7mph 7°C 6°C 6.6°C
08/01/23 13:50 EGDM 081350Z AUTO 22011KT 9999 -RA SCT020/// OVC032/// 07/06 Q0989 -RA 12.7mph 7°C 6°C 6.6°C
08/01/23 13:20 EGDM 081320Z AUTO 20010KT 9999 -RA OVC037/// 07/06 Q0989 -RA 11.5mph 7°C 6°C 6.6°C
08/01/23 12:50 EGDM 081250Z AUTO 20012KT 9999 // BKN033/// SCT100/// 07/06 Q0989 13.8mph 7°C 6°C 6.6°C
08/01/23 12:20 EGDM 081220Z AUTO 22015G26KT 4700 RA FEW010/// OVC027/// 07/06 Q0990 RA 17.3mph 29.9mph 7°C 6°C 6.6°C
08/01/23 11:50 EGDM 081150Z AUTO 21010KT 1400 +RA OVC007/// 07/06 Q0990 +RA 11.5mph 7°C 6°C 6.6°C
08/01/23 11:20 EGDM 081120Z AUTO 20011KT 8000 RA BKN013/// BKN037/// 07/06 Q0991 RA 12.7mph 7°C 6°C 6.6°C
08/01/23 10:50 EGDM 081050Z AUTO 21013KT 9999 // BKN039/// 07/05 Q0991 15.0mph 7°C 5°C 6.3°C
08/01/23 10:20 EGDM 081020Z AUTO 21016KT 9999 RA SCT011/// SCT031/// BKN041/// 07/06 Q0991 RA 18.4mph 7°C 6°C 6.6°C
08/01/23 09:50 EGDM 080950Z AUTO 20016KT 9999 -RA FEW013/// BKN026/// 07/06 Q0992 -RA 18.4mph 7°C 6°C 6.6°C
08/01/23 09:20 EGDM 080920Z AUTO 19009KT 9999 // SCT020/// 07/05 Q0992 10.4mph 7°C 5°C 6.3°C
08/01/23 08:50 EGDM 080850Z AUTO 20011KT 9999 // FEW130/// 07/05 Q0992 12.7mph 7°C 5°C 6.3°C
08/01/23 08:20 EGDM 080820Z AUTO 19009KT 9999 -RA SCT011/// 06/05 Q0993 -RA 10.4mph 6°C 5°C 5.3°C
08/01/23 07:50 EGDM 080750Z AUTO 17008KT 9999 // FEW034/// 05/04 Q0993 9.2mph 5°C 4°C 4.0°C
08/01/23 07:20 EGDM 080720Z AUTO 19008KT 9999 // FEW035/// 05/04 Q0993 9.2mph 5°C 4°C 4.0°C
08/01/23 06:50 EGDM 080650Z AUTO 21009KT 9999 FEW016/// BKN044/// 05/05 Q0994 10.4mph 5°C 5°C 4.3°C
08/01/23 06:20 EGDM 080620Z AUTO 20010KT 9999 FEW019/// 05/04 Q0994 11.5mph 5°C 4°C 4.0°C
08/01/23 05:50 EGDM 080550Z AUTO 20010KT 9999 // BKN028/// 06/05 Q0994 11.5mph 6°C 5°C 5.3°C
08/01/23 05:20 EGDM 080520Z AUTO 20010KT 9999 // FEW010/// SCT170/// 05/05 Q0994 11.5mph 5°C 5°C 4.3°C
08/01/23 04:50 EGDM 080450Z AUTO 20010KT 2800 RA FEW009/// BKN025/// 06/05 Q0995 RA 11.5mph 6°C 5°C 5.3°C
08/01/23 04:20 EGDM 080420Z AUTO 19009KT 9999 // FEW046/// 05/04 Q0995 10.4mph 5°C 4°C 4.0°C
08/01/23 03:50 EGDM 080350Z AUTO 19008KT 9999 // FEW100/// 05/04 Q0995 9.2mph 5°C 4°C 4.0°C
08/01/23 03:20 EGDM 080320Z AUTO 20011KT 9999 RA BKN036/// 06/05 Q0995 RA 12.7mph 6°C 5°C 5.3°C
08/01/23 02:50 EGDM 080250Z AUTO 20013KT 9999 // OVC069/// 06/05 Q0995 15.0mph 6°C 5°C 5.3°C
08/01/23 02:20 EGDM 080220Z AUTO 22013KT 9999 RA FEW023/// SCT031/// 06/05 Q0995 RA 15.0mph 6°C 5°C 5.3°C
08/01/23 01:50 EGDM 080150Z AUTO 24016KT 9999 -RA OVC020/// 07/05 Q0995 -RA 18.4mph 7°C 5°C 6.3°C
08/01/23 01:20 EGDM 080120Z AUTO 22012KT 9999 // OVC023/// 08/06 Q0995 13.8mph 8°C 6°C 7.6°C
08/01/23 00:20 EGDM 080020Z AUTO 22011KT 9999 // SCT014/// OVC024/// 08/06 Q0996 12.7mph 8°C 6°C 7.6°C
07/01/23 23:50 EGDM 072350Z AUTO 22015KT 9999 // SCT024/// BKN099/// 08/05 Q0996 17.3mph 8°C 5°C 7.3°C
07/01/23 23:20 EGDM 072320Z AUTO 21016KT 9999 -RA FEW022/// SCT043/// 08/05 Q0996 -RA 18.4mph 8°C 5°C 7.3°C
07/01/23 22:50 EGDM 072250Z AUTO 21012KT 9999 // BKN024/// SCT041/// 07/05 Q0996 13.8mph 7°C 5°C 6.3°C
07/01/23 22:20 EGDM 072220Z AUTO 21014KT 9999 NCD 07/05 Q0996 16.1mph 7°C 5°C 6.3°C
07/01/23 21:50 EGDM 072150Z AUTO 21013KT 9999 NCD 07/05 Q0996 15.0mph 7°C 5°C 6.3°C
07/01/23 21:20 EGDM 072120Z AUTO 22012KT 9999 NCD 07/05 Q0996 13.8mph 7°C 5°C 6.3°C
07/01/23 20:50 EGDM 072050Z AUTO 21013KT 9999 BKN021/// 07/05 Q0996 15.0mph 7°C 5°C 6.3°C
07/01/23 20:20 EGDM 072020Z AUTO 21012KT 9999 NCD 07/04 Q0996 13.8mph 7°C 4°C 6.0°C
07/01/23 19:50 EGDM 071950Z AUTO 21010KT 9999 FEW057/// 06/04 Q0996 11.5mph 6°C 4°C 5.0°C
07/01/23 19:20 EGDM 071920Z AUTO 21011KT 9999 FEW058/// 06/04 Q0996 12.7mph 6°C 4°C 5.0°C
07/01/23 18:50 EGDM 071850Z AUTO 23014KT 9999 // NCD 07/04 Q0996 16.1mph 7°C 4°C 6.0°C
07/01/23 18:20 EGDM 071820Z AUTO 22013KT 9999 // SCT021/// 07/05 Q0996 15.0mph 7°C 5°C 6.3°C
07/01/23 17:50 EGDM 071750Z AUTO 23014G28KT 6000 RA OVC017/// 07/05 Q0996 RA 16.1mph 32.2mph 7°C 5°C 6.3°C
07/01/23 17:20 EGDM 071720Z AUTO 22012KT 9999 // BKN021/// OVC100/// 08/05 Q0995 13.8mph 8°C 5°C 7.3°C
07/01/23 16:50 EGDM 071650Z AUTO 21014KT 9999 // FEW016/// SCT045/// BKN075/// 08/06 Q0995 16.1mph 8°C 6°C 7.6°C
07/01/23 16:20 EGDM 071620Z AUTO 22022G40KT 9999 -RA BKN017/// OVC040/// 09/07 Q0994 -RA 25.3mph 46.0mph 9°C 7°C 9.0°C
07/01/23 15:50 EGDM 071550Z AUTO 22020KT 9999 -RA BKN018/// BKN040/// 10/07 Q0994 -RA 23.0mph 10°C 7°C 10.0°C
07/01/23 15:20 EGDM 071520Z AUTO 21019KT 9999 // FEW017/// BKN040/// 10/08 Q0994 21.9mph 10°C 8°C 10.4°C
07/01/23 14:50 EGDM 071450Z AUTO 21018KT 9999 // OVC012/// 10/09 Q0994 20.7mph 10°C 9°C 10.8°C
07/01/23 14:20 EGDM 071420Z AUTO 23016KT 9999 -RA OVC010/// 09/08 Q0995 -RA 18.4mph 9°C 8°C 9.4°C
07/01/23 13:50 EGDM 071350Z AUTO 21019KT 1500 RA OVC009/// 10/08 Q0995 RA 21.9mph 10°C 8°C 10.4°C
07/01/23 12:50 EGDM 071250Z AUTO 21019G29KT 9999 -RA OVC007/// 11/10 Q0995 -RA 21.9mph 33.4mph 11°C 10°C 12.3°C
07/01/23 12:20 EGDM 071220Z AUTO 21023KT 8000 RA OVC002/// 11/10 Q0996 RA 26.5mph 11°C 10°C 12.3°C
07/01/23 11:50 EGDM 071150Z AUTO 20018KT 5000 -RA OVC005/// 10/10 Q0996 -RA 20.7mph 10°C 10°C 11.3°C
07/01/23 11:20 EGDM 071120Z AUTO 20018KT 9999 // OVC007/// 11/10 Q0996 20.7mph 11°C 10°C 12.3°C
07/01/23 10:50 EGDM 071050Z AUTO 20021KT 9999 // OVC010/// 11/09 Q0997 24.2mph 11°C 9°C 11.8°C
07/01/23 10:20 EGDM 071020Z AUTO 20022G33KT 8000 // OVC010/// 11/09 Q0997 25.3mph 38.0mph 11°C 9°C 11.8°C
07/01/23 09:50 EGDM 070950Z AUTO 20022KT 9999 // OVC007/// 11/09 Q0997 25.3mph 11°C 9°C 11.8°C
07/01/23 09:20 EGDM 070920Z AUTO 20023G34KT 5000 // OVC008/// 10/09 Q0998 26.5mph 39.1mph 10°C 9°C 10.8°C